createdAt,value
2022-12-19T00:01:32.199Z,58.03
2022-12-19T00:06:36.446Z,44.45
2022-12-19T00:11:39.337Z,43.72
2022-12-19T00:16:41.778Z,47.50
2022-12-19T00:21:45.662Z,44.75
2022-12-19T00:26:48.097Z,46.78
2022-12-19T00:31:50.470Z,47.38
2022-12-19T00:36:54.180Z,49.80
2022-12-19T00:46:58.756Z,50.65
2022-12-19T00:52:02.441Z,47.55
2022-12-19T01:02:07.080Z,48.20
2022-12-19T01:07:10.840Z,45.47
2022-12-19T01:17:34.685Z,47.08
2022-12-19T01:22:44.554Z,51.03
2022-12-19T01:27:46.879Z,51.72
2022-12-19T01:32:49.248Z,48.50
2022-12-19T01:37:53.237Z,55.70
2022-12-19T01:43:13.710Z,62.83
2022-12-19T01:48:17.268Z,55.47
2022-12-19T01:53:22.217Z,58.25
2022-12-19T01:58:24.740Z,61.45
2022-12-19T02:03:28.135Z,62.17
2022-12-19T02:08:32.246Z,70.95
2022-12-19T02:13:36.083Z,79.85
2022-12-19T02:18:44.174Z,76.78
2022-12-19T02:24:10.623Z,74.50
2022-12-19T02:29:21.524Z,80.45
2022-12-19T02:34:30.539Z,83.10
2022-12-19T02:39:35.250Z,83.78
2022-12-19T02:44:39.996Z,90.97
2022-12-19T02:49:44.041Z,83.30
2022-12-19T02:54:46.920Z,84.80
2022-12-19T02:59:56.830Z,81.57
2022-12-19T03:05:06.374Z,84.07
2022-12-19T03:10:12.964Z,82.65
2022-12-19T03:15:16.629Z,77.70
2022-12-19T03:20:25.283Z,85.43
2022-12-19T03:25:29.902Z,69.25
2022-12-19T03:30:33.099Z,78.10
2022-12-19T03:35:38.589Z,83.03
2022-12-19T03:40:43.635Z,78.18
2022-12-19T03:45:49.311Z,81.85
2022-12-19T03:51:00.110Z,74.60
2022-12-19T03:56:06.977Z,83.55
2022-12-19T04:01:10.408Z,86.55
2022-12-19T04:06:14.335Z,80.13
2022-12-19T04:11:19.720Z,82.75
2022-12-19T04:16:25.920Z,90.43
2022-12-19T04:21:32.207Z,88.63
2022-12-19T04:26:35.033Z,84.43
2022-12-19T04:31:37.684Z,82.63
2022-12-19T04:36:41.421Z,87.77
2022-12-19T04:41:43.758Z,103.38
2022-12-19T04:46:46.182Z,103.15
2022-12-19T04:51:49.986Z,100.05
2022-12-19T04:56:53.546Z,100.55
2022-12-19T05:07:00.104Z,87.45
2022-12-19T05:12:02.441Z,92.13
2022-12-19T05:17:04.971Z,103.82
2022-12-19T05:22:08.668Z,94.53
2022-12-19T05:27:11.068Z,85.88
2022-12-19T05:32:13.436Z,96.80
2022-12-19T05:37:17.188Z,92.10
2022-12-19T05:42:19.566Z,91.72
2022-12-19T05:47:21.972Z,88.00
2022-12-19T05:52:25.674Z,88.45
2022-12-19T05:57:28.251Z,85.22
2022-12-19T06:02:33.301Z,87.97
2022-12-19T06:07:37.160Z,86.28
2022-12-19T06:12:39.548Z,83.53
2022-12-19T06:17:41.917Z,90.35
2022-12-19T06:22:45.624Z,91.80
2022-12-19T06:27:48.009Z,74.00
2022-12-19T06:32:50.519Z,87.45
2022-12-19T06:37:59.341Z,82.72
2022-12-19T06:43:03.255Z,83.25
2022-12-19T06:48:05.705Z,80.00
2022-12-19T06:53:09.451Z,87.88
2022-12-19T06:58:12.016Z,84.43
2022-12-19T07:03:16.916Z,83.43
2022-12-19T07:08:20.694Z,83.57
2022-12-19T07:13:23.048Z,79.82
2022-12-19T07:18:25.465Z,80.82
2022-12-19T07:23:29.844Z,75.47
2022-12-19T07:28:33.711Z,72.18
2022-12-19T07:33:36.085Z,73.85
2022-12-19T07:38:39.803Z,68.30
2022-12-19T07:43:42.198Z,79.65
2022-12-19T07:48:44.565Z,67.75
2022-12-19T07:53:48.677Z,70.22
2022-12-19T07:58:51.689Z,80.03
2022-12-19T08:03:55.489Z,68.05
2022-12-19T08:08:59.214Z,72.78
2022-12-19T08:14:01.576Z,67.88
2022-12-19T08:19:04.009Z,68.53
2022-12-19T08:24:08.378Z,65.47
2022-12-19T08:29:10.722Z,64.18
2022-12-19T08:34:13.137Z,68.28
2022-12-19T08:39:16.920Z,64.97
2022-12-19T08:44:19.311Z,60.95
2022-12-19T08:49:21.736Z,57.03
2022-12-19T08:54:25.531Z,51.47
2022-12-19T08:59:30.867Z,52.30
2022-12-19T09:05:59.416Z,48.40
2022-12-19T09:09:58.855Z,45.53
2022-12-19T09:15:01.314Z,45.08
2022-12-19T09:20:03.733Z,42.22
2022-12-19T09:25:08.106Z,49.03
2022-12-19T09:30:12.786Z,41.60
2022-12-19T09:35:15.175Z,43.67
2022-12-19T09:40:18.962Z,37.40
2022-12-19T09:45:34.579Z,38.90
2022-12-19T09:50:43.617Z,38.58
2022-12-19T09:55:47.588Z,30.38
2022-12-19T10:00:58.706Z,36.03
2022-12-19T10:07:11.790Z,36.45
2022-12-19T10:12:40.177Z,35.53
2022-12-19T10:22:33.556Z,35.25
2022-12-19T10:27:38.872Z,34.40
2022-12-19T10:33:06.660Z,31.90
2022-12-19T10:38:20.212Z,32.03
2022-12-19T10:43:33.611Z,31.40
2022-12-19T10:48:37.089Z,29.95
2022-12-19T10:53:39.520Z,28.13
2022-12-19T10:58:44.500Z,31.08
2022-12-19T11:03:49.903Z,30.45
2022-12-19T11:08:52.627Z,29.02
2022-12-19T11:19:30.243Z,28.27
2022-12-19T11:23:44.589Z,28.70
2022-12-19T11:29:31.093Z,27.40
2022-12-19T11:31:52.994Z,28.90
2022-12-19T11:35:48.419Z,26.52
2022-12-19T11:40:52.189Z,24.02
2022-12-19T11:45:59.571Z,21.55
2022-12-19T11:51:06.892Z,19.35
2022-12-19T11:56:16.605Z,18.77
2022-12-19T12:01:25.399Z,16.25
2022-12-19T12:06:31.712Z,15.90
2022-12-19T12:17:46.251Z,17.70
2022-12-19T12:31:09.269Z,15.85
2022-12-19T12:31:50.445Z,16.65
2022-12-19T12:32:04.002Z,16.73
2022-12-19T12:35:32.828Z,16.27
2022-12-19T12:39:25.383Z,13.30
2022-12-19T12:44:33.411Z,14.90
2022-12-19T12:49:39.353Z,14.52
2022-12-19T12:54:43.559Z,14.70
2022-12-19T12:59:46.045Z,11.93
2022-12-19T13:05:01.241Z,14.27
2022-12-19T13:10:15.380Z,13.30
2022-12-19T13:15:32.420Z,10.48
2022-12-19T13:20:45.490Z,15.30
2022-12-19T13:25:49.564Z,13.30
2022-12-19T13:31:19.450Z,14.25
2022-12-19T13:39:49.599Z,15.02
2022-12-19T13:42:34.185Z,13.43
2022-12-19T13:47:38.701Z,16.38
2022-12-19T13:52:41.103Z,14.90
2022-12-19T13:57:48.121Z,14.23
2022-12-19T14:02:51.848Z,15.82
2022-12-19T14:07:54.902Z,17.15
2022-12-19T14:13:58.968Z,15.95
2022-12-19T14:18:44.840Z,19.65
2022-12-19T14:23:49.366Z,21.10
2022-12-19T14:34:35.157Z,20.42
2022-12-19T14:39:29.207Z,21.03
2022-12-19T14:54:03.654Z,25.00
2022-12-19T14:54:16.121Z,23.90
2022-12-19T14:56:26.832Z,29.83
2022-12-19T15:01:27.044Z,24.10
2022-12-19T15:07:07.603Z,25.60
2022-12-19T15:13:13.038Z,27.38
2022-12-19T15:17:44.698Z,24.70
2022-12-19T15:22:48.470Z,24.42
2022-12-19T15:27:50.946Z,23.50
2022-12-19T15:32:53.283Z,23.52
2022-12-19T15:37:56.995Z,20.58
2022-12-19T15:42:59.668Z,22.25
2022-12-19T15:48:02.165Z,20.90
2022-12-19T15:53:24.505Z,17.55
2022-12-19T15:58:34.332Z,22.20
2022-12-19T16:03:37.080Z,20.77
2022-12-19T16:08:41.014Z,19.58
2022-12-19T16:13:45.868Z,19.70
2022-12-19T16:18:48.280Z,18.48
2022-12-19T16:23:52.135Z,20.70
2022-12-19T16:28:54.557Z,21.73
2022-12-19T16:33:56.943Z,18.77
2022-12-19T16:39:00.659Z,19.83
2022-12-19T16:44:03.029Z,17.77
2022-12-19T16:49:06.759Z,16.67
2022-12-19T16:54:12.058Z,20.65
2022-12-19T16:59:16.085Z,15.77
2022-12-19T17:04:19.423Z,13.65
2022-12-19T17:09:23.836Z,17.10
2022-12-19T17:14:28.253Z,17.27
2022-12-19T17:19:33.390Z,15.05
2022-12-19T17:24:37.138Z,16.50
2022-12-19T17:29:40.073Z,25.73
2022-12-19T17:34:42.469Z,16.85
2022-12-19T17:39:46.234Z,15.93
2022-12-19T17:44:48.721Z,16.15
2022-12-19T17:49:51.793Z,15.68
2022-12-19T17:54:55.520Z,15.93
2022-12-19T17:59:57.858Z,14.43
2022-12-19T18:05:01.339Z,15.25
2022-12-19T18:15:08.008Z,10.70
2022-12-19T18:20:16.946Z,14.60
2022-12-19T18:25:20.227Z,15.77
2022-12-19T18:30:24.590Z,13.45
2022-12-19T18:35:29.837Z,14.05
2022-12-19T18:40:32.343Z,14.93
2022-12-19T18:45:37.678Z,11.82
2022-12-19T18:50:40.117Z,12.25
2022-12-19T18:55:42.538Z,12.70
2022-12-19T19:00:46.428Z,13.00
2022-12-19T19:05:48.785Z,10.07
2022-12-19T19:10:52.495Z,10.25
2022-12-19T19:15:59.678Z,13.98
2022-12-19T19:21:02.364Z,9.50
2022-12-19T19:26:06.229Z,12.37
2022-12-19T19:31:11.927Z,11.50
2022-12-19T19:36:16.278Z,10.00
2022-12-19T19:41:18.708Z,10.77
2022-12-19T19:46:22.590Z,14.20
2022-12-19T19:51:25.076Z,11.10
2022-12-19T19:56:28.935Z,9.95
2022-12-19T20:01:32.821Z,11.05
2022-12-19T20:06:35.306Z,8.40
2022-12-19T20:11:37.719Z,9.57
2022-12-19T20:16:43.307Z,8.77
2022-12-19T20:21:45.925Z,8.38
2022-12-19T20:26:48.348Z,10.93
2022-12-19T20:31:52.109Z,10.85
2022-12-19T20:36:54.562Z,7.35
2022-12-19T20:41:56.962Z,8.93
2022-12-19T20:47:00.760Z,10.05
2022-12-19T20:52:03.233Z,10.27
2022-12-19T20:57:05.653Z,10.63
2022-12-19T21:02:10.231Z,9.32
2022-12-19T21:07:12.714Z,9.10
2022-12-19T21:12:15.101Z,6.85
2022-12-19T21:17:18.899Z,8.63
2022-12-19T21:22:21.364Z,9.57
2022-12-19T21:27:23.732Z,10.93
2022-12-19T21:32:27.423Z,5.68
2022-12-19T21:37:30.133Z,8.80
2022-12-19T21:42:32.519Z,8.63
2022-12-19T21:47:39.267Z,9.70
2022-12-19T21:52:41.853Z,6.18
2022-12-19T21:57:44.681Z,8.00
2022-12-19T22:03:12.015Z,8.27
2022-12-19T22:08:11.709Z,6.05
2022-12-19T22:13:14.119Z,7.83
2022-12-19T22:18:17.831Z,5.80
2022-12-19T22:23:20.203Z,8.57
2022-12-19T22:28:22.601Z,6.43
2022-12-19T22:33:26.629Z,5.63
2022-12-19T22:38:29.009Z,5.07
2022-12-19T22:43:31.349Z,7.60
2022-12-19T22:48:35.107Z,5.32
2022-12-19T22:53:38.509Z,5.50
2022-12-19T23:03:45.011Z,7.85
2022-12-19T23:08:47.604Z,5.50
2022-12-19T23:13:50.408Z,7.78
2022-12-19T23:18:54.124Z,5.63
2022-12-19T23:23:56.574Z,4.95
2022-12-19T23:28:59.680Z,4.93
2022-12-19T23:34:03.666Z,7.55
2022-12-19T23:39:06.556Z,5.30
2022-12-19T23:44:09.184Z,4.07
2022-12-19T23:49:13.170Z,4.30
2022-12-19T23:54:15.572Z,5.82
2022-12-19T23:59:18.076Z,13.27
